Time;durP1;ratioP1;P1;durP2;ratioP2;P2;SDS_P1;SDS_P2;PMS_P1;PMS_P2;Temp;Humidity;BMP_temperature;BMP_pressure;BME280_temperature;BME280_humidity;BME280_pressure;Samples;Min_cycle;Max_cycle;Signal;HPM_P1;HPM_P2
2023/05/20 00:00:12;;;;;;;11.07;3.42;;;11.30;99.90;;;;;;4252604;27;20131;-86
2023/05/20 00:02:12;;;;;;;6.28;2.78;;;11.30;99.90;;;;;;4232494;28;20044;-86
2023/05/20 00:04:13;;;;;;;11.65;3.28;;;11.20;99.90;;;;;;4233147;28;20492;-86
2023/05/20 00:06:15;;;;;;;6.82;2.55;;;11.20;99.90;;;;;;4252293;27;20491;-86
2023/05/20 00:08:18;;;;;;;9.75;3.00;;;11.20;99.90;;;;;;4250983;27;20054;-85
2023/05/20 00:10:18;;;;;;;9.13;3.78;;;11.10;99.90;;;;;;4252094;27;20850;-86
2023/05/20 00:12:19;;;;;;;9.63;3.45;;;11.10;99.90;;;;;;4250218;27;20095;-87
2023/05/20 00:14:21;;;;;;;12.23;3.33;;;11.10;99.90;;;;;;4249880;27;20035;-86
2023/05/20 00:16:21;;;;;;;10.82;3.00;;;11.00;99.90;;;;;;4231846;28;20126;-86
2023/05/20 00:18:22;;;;;;;9.15;2.83;;;11.00;99.90;;;;;;4198352;28;20109;-86
2023/05/20 00:20:23;;;;;;;8.35;2.90;;;10.80;99.90;;;;;;4250495;27;20042;-85
2023/05/20 00:22:24;;;;;;;9.95;2.78;;;11.00;99.90;;;;;;4231445;28;20048;-86
2023/05/20 00:24:26;;;;;;;6.45;2.88;;;10.90;99.90;;;;;;4250115;27;20126;-85
2023/05/20 00:26:28;;;;;;;8.68;3.05;;;10.90;99.90;;;;;;4231425;28;20070;-86
2023/05/20 00:28:30;;;;;;;12.05;3.20;;;10.90;99.90;;;;;;4250446;27;20043;-86
2023/05/20 00:30:30;;;;;;;8.30;2.60;;;10.90;99.90;;;;;;4250482;27;20038;-86
2023/05/20 00:32:33;;;;;;;12.57;3.65;;;10.80;99.90;;;;;;4250333;27;20049;-85
2023/05/20 00:34:34;;;;;;;9.80;3.78;;;10.80;99.90;;;;;;4251294;27;20491;-86
2023/05/20 00:36:35;;;;;;;6.25;2.90;;;10.80;99.90;;;;;;4232252;28;20090;-86
2023/05/20 00:38:36;;;;;;;13.90;3.08;;;10.80;99.90;;;;;;4250904;27;20050;-86
2023/05/20 00:40:37;;;;;;;12.90;4.22;;;10.70;99.90;;;;;;4249979;27;20561;-86
2023/05/20 00:42:39;;;;;;;6.40;2.85;;;10.80;99.90;;;;;;4249702;27;20085;-87
2023/05/20 00:44:40;;;;;;;8.63;3.63;;;10.80;99.90;;;;;;4250222;27;20088;-86
2023/05/20 00:46:41;;;;;;;8.57;3.17;;;10.80;99.90;;;;;;4232658;28;20051;-86
2023/05/20 00:48:43;;;;;;;8.40;2.88;;;10.70;99.90;;;;;;4236135;27;20054;-86
2023/05/20 00:50:44;;;;;;;7.15;3.13;;;10.70;99.90;;;;;;4215932;28;20087;-86
2023/05/20 00:52:47;;;;;;;11.38;3.42;;;10.70;99.90;;;;;;4233368;28;20522;-86
2023/05/20 00:54:49;;;;;;;11.23;2.92;;;10.70;99.90;;;;;;4232967;28;20153;-86
2023/05/20 00:56:50;;;;;;;9.57;3.30;;;10.60;99.90;;;;;;4216365;28;20504;-86
2023/05/20 00:58:51;;;;;;;9.18;2.92;;;10.60;99.90;;;;;;4215738;28;20044;-85
2023/05/20 01:00:52;;;;;;;11.65;4.07;;;10.60;99.90;;;;;;4214554;28;20528;-86
2023/05/20 01:02:55;;;;;;;12.68;4.53;;;10.60;99.90;;;;;;4233243;28;20043;-85
2023/05/20 01:04:56;;;;;;;11.38;3.22;;;10.50;99.90;;;;;;4215018;28;20511;-86
2023/05/20 01:06:59;;;;;;;9.48;3.28;;;10.50;99.90;;;;;;4233509;28;20047;-85
2023/05/20 01:09:00;;;;;;;13.45;3.75;;;10.50;99.90;;;;;;4214387;28;20047;-86
2023/05/20 01:11:07;;;;;;;9.40;3.20;;;10.50;99.90;;;;;;4238881;27;20042;-86
2023/05/20 01:13:12;;;;;;;7.45;3.53;;;10.50;99.90;;;;;;4233663;28;20484;-86
2023/05/20 01:15:14;;;;;;;12.00;3.28;;;10.40;99.90;;;;;;4232782;28;20495;-86
2023/05/20 01:17:19;;;;;;;7.50;3.05;;;10.50;99.90;;;;;;4215511;28;20054;-86
2023/05/20 01:19:53;;;;;;;7.68;3.10;;;10.50;99.90;;;;;;4197472;28;20072;-86
2023/05/20 01:21:55;;;;;;;7.05;3.15;;;10.50;99.90;;;;;;4229598;28;20423;-86
2023/05/20 01:23:56;;;;;;;6.40;3.10;;;10.40;99.90;;;;;;4233289;28;20142;-86
2023/05/20 01:25:56;;;;;;;8.75;3.42;;;10.40;99.90;;;;;;4233445;28;20040;-86
2023/05/20 01:27:58;;;;;;;12.80;4.60;;;10.40;99.90;;;;;;4231215;28;20052;-86
2023/05/20 01:29:59;;;;;;;5.43;2.90;;;10.40;99.90;;;;;;4215532;28;20060;-86
2023/05/20 01:32:01;;;;;;;6.15;2.88;;;10.40;99.90;;;;;;4232167;28;20043;-86
2023/05/20 01:34:03;;;;;;;9.10;3.05;;;10.30;99.90;;;;;;4233457;28;20079;-86
2023/05/20 01:36:05;;;;;;;6.82;3.70;;;10.30;99.90;;;;;;4214840;28;20051;-86
2023/05/20 01:38:07;;;;;;;12.65;3.20;;;10.30;99.90;;;;;;4215715;28;20055;-86
2023/05/20 01:40:10;;;;;;;10.35;3.30;;;10.20;99.90;;;;;;4219050;28;20046;-86
2023/05/20 01:42:14;;;;;;;8.02;2.80;;;10.20;99.90;;;;;;4246031;27;20051;-86
2023/05/20 01:44:16;;;;;;;9.98;4.22;;;10.20;99.90;;;;;;4232062;28;20063;-86
2023/05/20 01:46:16;;;;;;;5.85;2.80;;;10.10;99.90;;;;;;4249505;28;20114;-86
2023/05/20 01:48:18;;;;;;;9.70;2.90;;;10.20;99.90;;;;;;4250280;28;20116;-86
2023/05/20 01:50:20;;;;;;;6.93;2.75;;;10.10;99.90;;;;;;4248567;28;20495;-86
2023/05/20 01:52:21;;;;;;;4.95;2.67;;;10.10;99.90;;;;;;4250350;28;20043;-86
2023/05/20 01:54:23;;;;;;;10.35;3.53;;;10.10;99.90;;;;;;4231433;28;20522;-86
2023/05/20 01:56:24;;;;;;;6.85;2.85;;;10.10;99.90;;;;;;4231164;28;20044;-86
2023/05/20 01:58:26;;;;;;;6.22;3.28;;;10.10;99.90;;;;;;4217693;28;20078;-86
2023/05/20 02:00:27;;;;;;;7.28;2.80;;;10.10;99.90;;;;;;4232039;28;20036;-86
2023/05/20 02:02:27;;;;;;;5.90;2.65;;;10.10;99.90;;;;;;4217733;28;20424;-86
2023/05/20 02:04:29;;;;;;;8.98;3.30;;;10.00;99.90;;;;;;4231989;28;20567;-86
2023/05/20 02:06:32;;;;;;;11.85;3.78;;;10.00;99.90;;;;;;4216432;28;20048;-86
2023/05/20 02:08:33;;;;;;;7.50;3.38;;;10.00;99.90;;;;;;4245485;27;20471;-86
2023/05/20 02:10:35;;;;;;;7.75;3.83;;;10.00;99.90;;;;;;4252658;27;20062;-86
2023/05/20 02:12:36;;;;;;;8.80;3.38;;;10.00;99.90;;;;;;4234855;28;20055;-86
2023/05/20 02:14:37;;;;;;;8.55;3.03;;;10.00;99.90;;;;;;4242805;27;20050;-86
2023/05/20 02:16:38;;;;;;;8.57;3.00;;;9.90;99.90;;;;;;4234800;28;20043;-86
2023/05/20 02:18:38;;;;;;;8.43;3.00;;;9.90;99.90;;;;;;4235282;28;20051;-86
2023/05/20 02:20:40;;;;;;;7.20;3.67;;;9.90;99.90;;;;;;4236972;28;20463;-86
2023/05/20 02:22:40;;;;;;;7.28;3.30;;;9.90;99.90;;;;;;4236004;28;20039;-85
2023/05/20 02:24:42;;;;;;;22.20;4.25;;;9.90;99.90;;;;;;4217781;28;20048;-86
2023/05/20 02:26:45;;;;;;;11.18;3.47;;;9.90;99.90;;;;;;4218182;28;20055;-86
2023/05/20 02:28:49;;;;;;;9.23;3.85;;;9.80;99.90;;;;;;4217625;28;20040;-86
2023/05/20 02:30:50;;;;;;;8.85;3.25;;;9.80;99.90;;;;;;4218328;28;20040;-86
2023/05/20 02:32:52;;;;;;;8.50;3.17;;;9.80;99.90;;;;;;4235519;28;20054;-86
2023/05/20 02:34:54;;;;;;;6.50;2.80;;;9.80;99.90;;;;;;4235572;28;20048;-86
2023/05/20 02:36:55;;;;;;;9.50;3.10;;;9.70;99.90;;;;;;4237155;27;20039;-86
2023/05/20 02:38:56;;;;;;;8.15;3.45;;;9.70;99.90;;;;;;4252500;27;20046;-87
2023/05/20 02:40:58;;;;;;;11.48;3.53;;;9.70;99.90;;;;;;4252926;27;20126;-86
2023/05/20 02:43:00;;;;;;;5.85;2.90;;;9.60;99.90;;;;;;4228147;28;20048;-86
2023/05/20 02:45:01;;;;;;;5.68;2.90;;;9.70;99.90;;;;;;4236245;28;20404;-87
2023/05/20 02:47:02;;;;;;;6.97;3.45;;;9.60;99.90;;;;;;4234905;28;20047;-86
2023/05/20 02:49:02;;;;;;;6.90;3.00;;;9.60;99.90;;;;;;4235474;28;20043;-86
2023/05/20 02:51:04;;;;;;;8.23;3.30;;;9.60;99.90;;;;;;4235794;28;20043;-86
2023/05/20 02:53:05;;;;;;;7.40;3.22;;;9.60;99.90;;;;;;4216992;28;20103;-86
2023/05/20 02:55:07;;;;;;;7.22;2.83;;;9.60;99.90;;;;;;4241282;27;20043;-86
2023/05/20 02:57:08;;;;;;;5.65;3.05;;;9.60;99.90;;;;;;4251480;27;20047;-86
2023/05/20 02:59:08;;;;;;;7.40;2.83;;;9.60;99.90;;;;;;4234108;28;20052;-86
2023/05/20 03:01:10;;;;;;;5.65;2.72;;;9.60;99.90;;;;;;4252024;27;20491;-86
2023/05/20 03:03:12;;;;;;;7.13;2.83;;;9.60;99.90;;;;;;4252969;27;20100;-86
2023/05/20 03:05:13;;;;;;;5.57;2.78;;;9.60;99.90;;;;;;4252612;27;20074;-86
2023/05/20 03:07:16;;;;;;;4.15;2.88;;;9.60;99.90;;;;;;4251779;27;20051;-86
2023/05/20 03:09:18;;;;;;;7.20;2.85;;;9.60;99.90;;;;;;4252210;27;20053;-86
2023/05/20 03:11:20;;;;;;;5.35;2.33;;;9.60;99.90;;;;;;4252252;27;20100;-87
2023/05/20 03:13:21;;;;;;;6.78;2.80;;;9.60;99.90;;;;;;4247313;27;20050;-86
2023/05/20 03:15:23;;;;;;;6.28;2.60;;;9.60;99.90;;;;;;4234647;28;20480;-86
2023/05/20 03:17:23;;;;;;;9.32;2.88;;;9.60;99.90;;;;;;4234988;28;20051;-86
2023/05/20 03:19:24;;;;;;;4.82;2.90;;;9.60;99.90;;;;;;4243406;27;20395;-86
2023/05/20 03:21:26;;;;;;;4.80;2.55;;;9.60;99.90;;;;;;4216642;28;20126;-87
2023/05/20 03:23:27;;;;;;;4.93;2.30;;;9.50;99.90;;;;;;4234673;28;20070;-87
2023/05/20 03:25:28;;;;;;;6.28;2.70;;;10.40;99.90;;;;;;4233637;28;20052;-87
2023/05/20 03:27:29;;;;;;;4.97;3.10;;;9.50;99.90;;;;;;4252616;27;20491;-87
2023/05/20 03:29:32;;;;;;;4.88;2.30;;;9.40;99.90;;;;;;4251571;27;20032;-87
2023/05/20 03:31:33;;;;;;;4.03;2.03;;;9.40;99.90;;;;;;4232927;28;20126;-86
2023/05/20 03:33:36;;;;;;;4.88;2.28;;;9.40;99.90;;;;;;4252052;27;20043;-86
2023/05/20 03:35:36;;;;;;;5.28;2.60;;;9.40;99.90;;;;;;4251987;27;20046;-86
2023/05/20 03:37:38;;;;;;;6.63;2.38;;;9.30;99.90;;;;;;4252451;27;20557;-86
2023/05/20 03:39:39;;;;;;;8.73;2.40;;;9.30;99.90;;;;;;4251322;27;20455;-87
2023/05/20 03:41:40;;;;;;;5.70;2.30;;;9.30;99.90;;;;;;4231700;28;20059;-86
2023/05/20 03:43:40;;;;;;;4.15;2.65;;;9.30;99.90;;;;;;4251245;27;20035;-86
2023/05/20 03:45:41;;;;;;;4.93;2.10;;;9.30;99.90;;;;;;4251253;27;20043;-86
2023/05/20 03:47:42;;;;;;;4.20;1.95;;;9.30;99.90;;;;;;4250731;27;20114;-86
2023/05/20 03:49:42;;;;;;;7.20;1.92;;;9.30;99.90;;;;;;4233960;28;20437;-86
2023/05/20 03:51:43;;;;;;;6.10;2.33;;;9.40;99.90;;;;;;4251364;27;20047;-86
2023/05/20 03:53:44;;;;;;;5.45;3.00;;;9.40;99.90;;;;;;4251004;27;20040;-86
2023/05/20 03:55:45;;;;;;;3.95;1.75;;;9.40;99.90;;;;;;4251562;27;20096;-86
2023/05/20 03:57:45;;;;;;;2.67;1.42;;;9.50;99.90;;;;;;4250324;27;20393;-86
2023/05/20 03:59:46;;;;;;;3.58;2.20;;;9.50;99.90;;;;;;4247771;27;20168;-86
2023/05/20 04:01:48;;;;;;;10.68;2.55;;;9.60;99.90;;;;;;4233699;27;20126;-86
2023/05/20 04:03:50;;;;;;;4.03;2.20;;;9.60;99.90;;;;;;4234449;28;20511;-86
2023/05/20 04:05:50;;;;;;;2.55;1.60;;;9.70;99.90;;;;;;4233756;28;20088;-85
2023/05/20 04:07:51;;;;;;;4.85;1.95;;;9.80;99.90;;;;;;4215605;28;20423;-86
2023/05/20 04:09:52;;;;;;;3.60;1.70;;;9.80;99.90;;;;;;4234434;28;20114;-86
2023/05/20 04:11:52;;;;;;;8.82;2.00;;;9.90;99.90;;;;;;4236705;27;20201;-86
2023/05/20 04:13:53;;;;;;;4.68;2.28;;;9.90;99.90;;;;;;4215982;28;20052;-86
2023/05/20 04:15:54;;;;;;;3.10;1.50;;;10.00;99.90;;;;;;4233499;27;20035;-86
2023/05/20 04:17:56;;;;;;;5.07;2.03;;;10.00;99.90;;;;;;4249381;27;20126;-87
2023/05/20 04:19:58;;;;;;;7.18;2.70;;;10.10;99.90;;;;;;4250724;27;20486;-86
2023/05/20 04:22:00;;;;;;;4.13;2.10;;;10.10;99.90;;;;;;4234563;28;20478;-86
2023/05/20 04:24:01;;;;;;;6.97;2.03;;;10.20;99.90;;;;;;4250629;27;20047;-86
2023/05/20 04:26:01;;;;;;;4.63;1.80;;;10.20;99.90;;;;;;4231924;28;20108;-86
2023/05/20 04:28:03;;;;;;;5.32;2.55;;;10.30;99.90;;;;;;4250884;27;20065;-86
2023/05/20 04:30:05;;;;;;;3.58;1.67;;;10.30;99.90;;;;;;4232161;28;20054;-86
2023/05/20 04:32:09;;;;;;;3.63;1.50;;;10.30;99.90;;;;;;4251157;27;20043;-86
2023/05/20 04:34:11;;;;;;;3.25;1.60;;;10.40;99.90;;;;;;4250783;27;20046;-85
2023/05/20 04:36:15;;;;;;;4.35;1.40;;;10.40;99.90;;;;;;4249869;27;20074;-85
2023/05/20 04:38:15;;;;;;;3.70;1.42;;;10.40;99.90;;;;;;4251089;27;20038;-85
2023/05/20 04:40:16;;;;;;;2.20;1.25;;;10.50;99.90;;;;;;4249561;27;20046;-86
2023/05/20 04:42:19;;;;;;;6.57;1.50;;;10.50;99.90;;;;;;4232776;28;20686;-86
2023/05/20 04:44:20;;;;;;;4.78;2.15;;;10.60;99.90;;;;;;4250812;27;20046;-86
2023/05/20 04:46:20;;;;;;;4.03;1.55;;;10.60;99.90;;;;;;4232940;28;20086;-86
2023/05/20 04:48:21;;;;;;;3.55;1.30;;;10.60;99.90;;;;;;4250221;27;20043;-86
2023/05/20 04:50:22;;;;;;;4.93;1.45;;;10.60;99.90;;;;;;4250611;27;20031;-87
2023/05/20 04:52:23;;;;;;;3.65;1.17;;;10.70;99.90;;;;;;4251172;27;20095;-87
2023/05/20 04:54:24;;;;;;;4.53;1.85;;;10.70;99.90;;;;;;4250969;27;20050;-86
2023/05/20 04:56:26;;;;;;;5.05;1.38;;;10.70;99.90;;;;;;4251146;27;20118;-87
2023/05/20 04:58:28;;;;;;;5.05;1.20;;;10.70;99.90;;;;;;4221283;28;20047;-86
2023/05/20 05:00:30;;;;;;;5.05;1.40;;;10.70;99.90;;;;;;4236917;27;20503;-86
2023/05/20 05:02:30;;;;;;;2.95;1.05;;;10.80;99.90;;;;;;4215229;28;20508;-86
2023/05/20 05:04:31;;;;;;;4.25;1.55;;;10.80;99.90;;;;;;4233783;28;20047;-85
2023/05/20 05:06:32;;;;;;;4.18;1.55;;;10.90;99.90;;;;;;4250052;27;20495;-85
2023/05/20 05:08:33;;;;;;;4.03;1.27;;;10.90;99.90;;;;;;4228610;28;20051;-85
2023/05/20 05:10:35;;;;;;;3.08;1.75;;;10.90;99.90;;;;;;4240928;27;20039;-86
2023/05/20 05:12:35;;;;;;;3.83;1.38;;;10.90;99.90;;;;;;4250409;27;20091;-85
2023/05/20 05:14:36;;;;;;;6.70;1.95;;;11.00;99.90;;;;;;4230911;28;20514;-85
2023/05/20 05:16:37;;;;;;;2.45;1.50;;;10.80;99.90;;;;;;4214212;28;20135;-86
2023/05/20 05:18:37;;;;;;;10.40;2.20;;;11.20;99.90;;;;;;4234338;27;20040;-86
2023/05/20 05:20:39;;;;;;;5.18;1.20;;;11.30;99.90;;;;;;4233796;28;20051;-86
2023/05/20 05:22:40;;;;;;;4.10;1.45;;;11.40;99.90;;;;;;4198278;28;20036;-85
2023/05/20 05:24:41;;;;;;;3.10;1.23;;;11.60;99.90;;;;;;4214398;28;20129;-85
2023/05/20 05:26:42;;;;;;;2.97;1.50;;;11.80;99.90;;;;;;4214052;28;20097;-85
2023/05/20 05:28:42;;;;;;;3.40;1.20;;;11.90;99.90;;;;;;4233755;28;20038;-85
2023/05/20 05:30:43;;;;;;;4.00;1.33;;;12.10;99.90;;;;;;4214273;28;20052;-85
2023/05/20 05:32:44;;;;;;;4.43;1.42;;;12.20;99.90;;;;;;4232772;28;20122;-85
2023/05/20 05:34:45;;;;;;;1.85;0.93;;;12.40;99.90;;;;;;4232523;28;20134;-85
2023/05/20 05:36:46;;;;;;;3.05;1.00;;;12.50;99.90;;;;;;4214613;28;20109;-86
2023/05/20 05:38:46;;;;;;;3.10;1.10;;;12.60;99.90;;;;;;4228001;28;20052;-86
2023/05/20 05:40:47;;;;;;;3.60;1.10;;;12.70;99.90;;;;;;4230422;28;20080;-85
2023/05/20 05:42:48;;;;;;;1.95;1.05;;;12.70;99.90;;;;;;4231746;28;20079;-84
2023/05/20 05:44:50;;;;;;;1.23;0.70;;;12.70;99.90;;;;;;4230349;28;20441;-85
2023/05/20 05:46:51;;;;;;;3.05;1.10;;;12.80;99.90;;;;;;4232150;28;20114;-85
2023/05/20 05:48:52;;;;;;;2.75;1.80;;;12.80;99.90;;;;;;4250512;28;20035;-85
2023/05/20 05:50:52;;;;;;;3.03;0.85;;;12.80;99.90;;;;;;4215661;28;20055;-86
2023/05/20 05:52:53;;;;;;;6.32;2.08;;;12.90;99.90;;;;;;4237877;28;20509;-85
2023/05/20 05:54:54;;;;;;;8.43;1.30;;;12.90;99.90;;;;;;4215537;28;20108;-85
2023/05/20 05:56:58;;;;;;;3.88;1.23;;;12.90;99.90;;;;;;4250352;28;20066;-84
2023/05/20 05:58:58;;;;;;;2.72;1.75;;;12.90;99.90;;;;;;4250578;28;20495;-85
2023/05/20 06:00:59;;;;;;;2.72;0.60;;;12.90;99.90;;;;;;4250094;28;20043;-85
2023/05/20 06:03:00;;;;;;;4.22;1.10;;;12.90;99.90;;;;;;4230984;28;20040;-85
2023/05/20 06:05:02;;;;;;;4.88;1.35;;;13.00;99.90;;;;;;4250477;28;20443;-85
2023/05/20 06:07:03;;;;;;;6.40;1.67;;;13.00;99.90;;;;;;4248964;28;20035;-85
2023/05/20 06:09:04;;;;;;;4.60;1.40;;;13.10;99.90;;;;;;4249803;28;20121;-85
2023/05/20 06:11:04;;;;;;;2.60;1.00;;;13.10;99.90;;;;;;4232162;28;20071;-84
2023/05/20 06:13:05;;;;;;;4.22;1.88;;;13.10;99.90;;;;;;4248808;28;20035;-85
2023/05/20 06:15:07;;;;;;;4.35;1.50;;;13.20;99.90;;;;;;4233490;28;20039;-85
2023/05/20 06:17:08;;;;;;;3.28;1.63;;;13.20;99.90;;;;;;4232960;28;20040;-85
2023/05/20 06:19:09;;;;;;;2.45;1.08;;;13.30;99.90;;;;;;4214317;28;20040;-85
2023/05/20 06:21:10;;;;;;;2.88;0.75;;;13.30;99.90;;;;;;4232473;28;20470;-85
2023/05/20 06:23:11;;;;;;;4.20;1.00;;;13.40;99.90;;;;;;4214220;28;20063;-84
2023/05/20 06:25:11;;;;;;;3.67;1.02;;;13.40;99.90;;;;;;4232587;28;20036;-85
2023/05/20 06:27:12;;;;;;;3.88;1.10;;;13.50;99.90;;;;;;4232088;28;20126;-85
2023/05/20 06:29:13;;;;;;;2.60;1.10;;;13.50;99.90;;;;;;4233193;28;20051;-86
2023/05/20 06:31:14;;;;;;;3.13;1.02;;;13.50;99.90;;;;;;4233450;28;20031;-86
2023/05/20 06:33:14;;;;;;;3.28;1.02;;;13.60;99.90;;;;;;4232061;28;20445;-85
2023/05/20 06:35:15;;;;;;;3.95;0.80;;;13.70;99.90;;;;;;4213992;28;20040;-85
2023/05/20 06:37:16;;;;;;;1.23;0.70;;;13.70;99.90;;;;;;4225666;28;20118;-84
2023/05/20 06:39:17;;;;;;;3.75;0.90;;;13.80;99.90;;;;;;4247012;28;20491;-85
2023/05/20 06:41:18;;;;;;;3.80;0.93;;;13.80;99.90;;;;;;4247209;28;20039;-86
2023/05/20 06:43:18;;;;;;;5.68;1.52;;;13.90;99.90;;;;;;4230573;28;20086;-85
2023/05/20 06:45:20;;;;;;;2.83;1.00;;;13.90;99.90;;;;;;4225884;28;20486;-86
2023/05/20 06:47:21;;;;;;;3.28;1.35;;;14.00;99.90;;;;;;4234870;28;20050;-86
2023/05/20 06:49:23;;;;;;;2.97;0.90;;;14.00;99.90;;;;;;4213198;28;20040;-86
2023/05/20 06:51:26;;;;;;;10.90;1.20;;;14.10;99.90;;;;;;4248005;28;20051;-86
2023/05/20 06:53:27;;;;;;;3.95;1.00;;;14.20;99.90;;;;;;4233173;28;20404;-86
2023/05/20 06:55:28;;;;;;;1.85;0.80;;;14.30;99.90;;;;;;4230013;28;20094;-86
2023/05/20 06:57:28;;;;;;;5.55;0.90;;;13.90;99.90;;;;;;4218890;28;20130;-85
2023/05/20 06:59:29;;;;;;;6.57;0.90;;;14.40;99.90;;;;;;4250074;27;20047;-86
2023/05/20 07:01:31;;;;;;;2.22;1.00;;;14.50;99.90;;;;;;4233718;28;20040;-85
2023/05/20 07:03:32;;;;;;;4.45;0.90;;;14.60;99.90;;;;;;4250735;27;20035;-85
2023/05/20 07:05:33;;;;;;;2.97;1.10;;;14.70;99.90;;;;;;4251748;27;20050;-85
2023/05/20 07:07:33;;;;;;;1.75;0.80;;;14.70;99.90;;;;;;4250370;27;20035;-84
2023/05/20 07:09:34;;;;;;;3.65;0.88;;;14.80;99.90;;;;;;4251251;27;20050;-85
2023/05/20 07:11:35;;;;;;;2.33;0.70;;;14.90;99.90;;;;;;4251036;27;20779;-84
2023/05/20 07:13:36;;;;;;;3.78;0.90;;;15.00;99.90;;;;;;4232136;28;20052;-85
2023/05/20 07:15:37;;;;;;;2.70;1.13;;;15.10;99.90;;;;;;4232460;28;20047;-85
2023/05/20 07:17:38;;;;;;;3.65;0.93;;;15.20;99.90;;;;;;4250460;27;20058;-85
2023/05/20 07:19:40;;;;;;;2.83;1.17;;;15.20;99.90;;;;;;4251638;27;20407;-85
2023/05/20 07:21:43;;;;;;;2.60;1.10;;;15.30;99.90;;;;;;4233000;28;20051;-86
2023/05/20 07:23:46;;;;;;;2.55;0.98;;;15.40;99.90;;;;;;4250512;27;20057;-86
2023/05/20 07:25:47;;;;;;;1.67;0.73;;;15.40;99.90;;;;;;4232193;28;20067;-85
2023/05/20 07:27:47;;;;;;;2.20;0.85;;;15.50;99.90;;;;;;4231255;28;20058;-86
2023/05/20 07:29:49;;;;;;;1.90;1.45;;;15.60;99.90;;;;;;4250631;27;20130;-85
2023/05/20 07:31:50;;;;;;;3.00;1.23;;;15.70;99.90;;;;;;4249388;27;20043;-86
2023/05/20 07:33:51;;;;;;;5.07;1.20;;;15.70;99.90;;;;;;4250595;27;20100;-85
2023/05/20 07:35:53;;;;;;;3.22;0.90;;;15.80;99.90;;;;;;4231606;28;20549;-86
2023/05/20 07:37:54;;;;;;;2.20;1.30;;;15.90;99.90;;;;;;4231736;28;20100;-86
2023/05/20 07:39:55;;;;;;;3.95;1.17;;;16.00;99.90;;;;;;4251255;27;20095;-85
2023/05/20 07:41:56;;;;;;;2.55;0.90;;;16.00;99.90;;;;;;4249397;27;20043;-85
2023/05/20 07:43:57;;;;;;;1.60;1.00;;;16.20;99.90;;;;;;4221327;28;20087;-85
2023/05/20 07:45:58;;;;;;;2.30;1.20;;;16.20;99.90;;;;;;4250118;27;20108;-85
2023/05/20 07:47:58;;;;;;;7.53;1.30;;;16.40;99.90;;;;;;4231815;28;20056;-87
2023/05/20 07:49:59;;;;;;;3.50;1.10;;;16.40;99.90;;;;;;4249269;27;20440;-85
2023/05/20 07:52:01;;;;;;;3.10;0.95;;;16.60;99.90;;;;;;4250815;27;20058;-85
2023/05/20 07:54:02;;;;;;;6.40;1.90;;;16.70;99.90;;;;;;4232054;28;20511;-85
2023/05/20 07:56:03;;;;;;;1.95;1.20;;;16.90;99.90;;;;;;4251078;27;20475;-85
2023/05/20 07:58:04;;;;;;;4.63;1.13;;;17.00;99.90;;;;;;4251466;27;20045;-85
2023/05/20 08:00:08;;;;;;;5.55;1.27;;;17.20;99.90;;;;;;4231934;28;20106;-86
2023/05/20 08:02:08;;;;;;;1.10;0.88;;;17.30;99.90;;;;;;4233553;28;20055;-85
2023/05/20 08:04:10;;;;;;;3.67;1.10;;;17.40;99.90;;;;;;4231014;28;20130;-86
2023/05/20 08:06:11;;;;;;;4.03;1.00;;;17.40;99.90;;;;;;4252009;27;20403;-85
2023/05/20 08:08:12;;;;;;;7.53;2.03;;;17.50;99.90;;;;;;4250333;27;20043;-85
2023/05/20 08:10:12;;;;;;;3.42;1.10;;;17.60;99.90;;;;;;4250181;27;20086;-85
2023/05/20 08:12:13;;;;;;;2.38;1.15;;;17.70;99.90;;;;;;4247629;27;20510;-84
2023/05/20 08:14:14;;;;;;;2.70;0.80;;;17.80;99.90;;;;;;4244859;27;20039;-85
2023/05/20 08:16:15;;;;;;;3.13;1.00;;;17.90;99.90;;;;;;4248370;27;20062;-85
2023/05/20 08:18:15;;;;;;;4.50;0.90;;;18.00;99.90;;;;;;4230152;28;20062;-85
2023/05/20 08:20:17;;;;;;;2.15;0.90;;;18.10;99.90;;;;;;4249633;27;20043;-84
2023/05/20 08:22:18;;;;;;;2.80;1.05;;;18.20;99.90;;;;;;4249345;27;20585;-86
2023/05/20 08:24:18;;;;;;;1.85;0.70;;;18.40;99.90;;;;;;4231703;28;20055;-85
2023/05/20 08:26:21;;;;;;;3.17;1.02;;;18.40;99.90;;;;;;4250118;27;20055;-85
2023/05/20 08:28:21;;;;;;;3.25;1.17;;;18.60;99.90;;;;;;4249013;27;20051;-85
2023/05/20 08:30:22;;;;;;;2.25;0.88;;;18.70;99.90;;;;;;4230927;28;20542;-85
2023/05/20 08:32:23;;;;;;;3.00;0.90;;;19.00;99.90;;;;;;4249267;27;20035;-86
2023/05/20 08:34:24;;;;;;;2.53;0.88;;;19.10;99.90;;;;;;4249359;27;20031;-86
2023/05/20 08:36:25;;;;;;;2.42;0.63;;;19.30;99.90;;;;;;4213657;28;20125;-86
2023/05/20 08:38:26;;;;;;;2.13;0.88;;;19.40;99.90;;;;;;4232722;28;20035;-85
2023/05/20 08:40:28;;;;;;;5.55;0.70;;;19.40;99.50;;;;;;4233288;28;20051;-83
2023/05/20 08:42:28;;;;;;;3.85;0.80;;;19.60;99.20;;;;;;4252899;27;20126;-86
2023/05/20 08:44:31;;;;;;;2.08;0.93;;;19.60;98.80;;;;;;4234433;28;20050;-86
2023/05/20 08:46:34;;;;;;;1.80;0.80;;;19.60;98.50;;;;;;4234516;28;20211;-86
2023/05/20 08:48:35;;;;;;;4.82;0.95;;;19.70;98.30;;;;;;4233796;28;20042;-86
2023/05/20 08:50:37;;;;;;;6.68;1.27;;;19.80;98.60;;;;;;4228050;28;20101;-86
2023/05/20 08:52:47;;;;;;;3.75;0.90;;;20.00;98.60;;;;;;4234769;28;20043;-86
2023/05/20 08:54:49;;;;;;;4.88;1.05;;;20.20;98.20;;;;;;4234196;28;20501;-85
2023/05/20 08:56:52;;;;;;;1.73;0.60;;;20.20;98.00;;;;;;4215699;28;20075;-86
2023/05/20 08:58:55;;;;;;;1.50;0.80;;;20.20;97.70;;;;;;4245710;27;20039;-86
2023/05/20 09:00:57;;;;;;;1.48;1.15;;;20.20;97.30;;;;;;4250539;27;20398;-85
2023/05/20 09:02:59;;;;;;;1.52;0.77;;;20.30;97.30;;;;;;4251704;27;20051;-86
2023/05/20 09:04:59;;;;;;;11.73;2.70;;;20.40;96.80;;;;;;4232190;28;20054;-85
2023/05/20 09:07:00;;;;;;;4.25;1.30;;;20.40;96.80;;;;;;4251702;27;20047;-85
2023/05/20 09:09:01;;;;;;;5.78;0.98;;;20.60;96.90;;;;;;4249744;27;20398;-86
2023/05/20 09:11:02;;;;;;;2.58;0.70;;;20.90;96.80;;;;;;4251766;27;20122;-86
2023/05/20 09:13:05;;;;;;;2.88;1.05;;;21.00;96.80;;;;;;4250685;27;20032;-86
2023/05/20 09:15:08;;;;;;;3.05;1.10;;;21.30;96.50;;;;;;4224799;28;20593;-86
2023/05/20 09:17:10;;;;;;;3.63;1.25;;;21.40;96.20;;;;;;4235182;28;20488;-86
2023/05/20 09:19:11;;;;;;;3.38;1.63;;;21.50;95.90;;;;;;4215285;28;20416;-86
2023/05/20 09:21:13;;;;;;;1.92;0.80;;;21.60;95.90;;;;;;4216352;28;20048;-86
2023/05/20 09:23:14;;;;;;;5.38;0.98;;;21.70;95.30;;;;;;4216149;28;20510;-86
2023/05/20 09:25:19;;;;;;;6.72;1.10;;;21.70;95.10;;;;;;4217156;28;20075;-86
2023/05/20 09:27:20;;;;;;;3.67;1.40;;;21.80;94.60;;;;;;4216229;28;20036;-86
2023/05/20 09:29:23;;;;;;;1.85;0.80;;;21.80;94.50;;;;;;4215470;28;20051;-86
2023/05/20 09:31:29;;;;;;;3.63;0.98;;;21.90;94.70;;;;;;4216051;28;20115;-86
2023/05/20 09:33:30;;;;;;;6.57;1.10;;;22.10;94.60;;;;;;4216660;28;20052;-87
2023/05/20 09:35:35;;;;;;;1.13;0.70;;;;;;;;;;4216515;28;20040;-86
2023/05/20 09:37:37;;;;;;;3.25;1.63;;;;;;;;;;4220183;28;20050;-86
2023/05/20 09:40:05;;;;;;;3.42;0.80;;;22.30;94.60;;;;;;4216411;28;20541;-87
2023/05/20 09:42:20;;;;;;;6.72;1.25;;;22.70;91.80;;;;;;4215349;28;20113;-86
2023/05/20 09:44:22;;;;;;;2.47;0.70;;;22.40;93.00;;;;;;4218933;28;20075;-87
2023/05/20 09:46:24;;;;;;;1.80;0.85;;;22.50;93.60;;;;;;4216825;28;20047;-88
2023/05/20 09:48:26;;;;;;;2.88;0.90;;;22.70;93.30;;;;;;4199726;28;20076;-87
2023/05/20 09:50:27;;;;;;;5.72;0.90;;;;;;;;;;4217293;28;20491;-82
2023/05/20 09:52:29;;;;;;;6.07;0.93;;;;;;;;;;4215852;28;20408;-84
2023/05/20 09:54:31;;;;;;;5.82;1.20;;;;;;;;;;4216083;28;20527;-83
2023/05/20 09:56:34;;;;;;;2.72;1.00;;;22.70;92.90;;;;;;4215838;28;20548;-83
2023/05/20 09:58:39;;;;;;;3.08;1.33;;;22.90;92.20;;;;;;4216667;28;20059;-83
2023/05/20 10:00:40;;;;;;;2.85;0.95;;;23.00;91.60;;;;;;4216570;28;20040;-83
2023/05/20 10:02:48;;;;;;;3.20;0.80;;;23.10;91.70;;;;;;4216933;28;20512;-83
2023/05/20 10:04:56;;;;;;;1.13;0.70;;;23.20;92.00;;;;;;4215908;28;20044;-85
2023/05/20 10:07:04;;;;;;;1.55;0.80;;;23.40;92.00;;;;;;4217361;28;20040;-85
2023/05/20 10:09:15;;;;;;;2.20;1.40;;;23.50;92.10;;;;;;4225485;28;20046;-85
2023/05/20 10:11:25;;;;;;;2.38;1.08;;;23.80;91.90;;;;;;4232417;28;20075;-85
2023/05/20 10:13:45;;;;;;;2.05;0.90;;;24.10;90.90;;;;;;4230253;28;20046;-85
2023/05/20 10:15:56;;;;;;;4.22;1.10;;;24.30;90.60;;;;;;4230441;28;20072;-85
2023/05/20 10:18:18;;;;;;;3.63;1.05;;;24.60;90.70;;;;;;4231571;28;20502;-85
2023/05/20 10:20:19;;;;;;;2.83;1.20;;;24.80;90.60;;;;;;4230425;28;20040;-85
2023/05/20 10:22:27;;;;;;;4.38;1.67;;;25.00;90.30;;;;;;4230998;28;20050;-86
2023/05/20 10:24:31;;;;;;;2.30;0.95;;;25.20;89.10;;;;;;4226333;28;20044;-86
2023/05/20 10:26:36;;;;;;;4.97;1.10;;;25.20;89.00;;;;;;4215793;28;20032;-86
2023/05/20 10:28:40;;;;;;;3.45;1.00;;;25.10;86.60;;;;;;4218096;28;20514;-87
2023/05/20 10:30:49;;;;;;;6.75;1.83;;;24.90;86.80;;;;;;4200899;28;20044;-86
2023/05/20 10:32:56;;;;;;;3.15;1.20;;;24.80;85.50;;;;;;4217643;28;20075;-85
2023/05/20 10:35:07;;;;;;;2.65;1.10;;;24.80;86.80;;;;;;4217089;28;20082;-85
2023/05/20 10:37:08;;;;;;;3.28;1.00;;;24.90;86.10;;;;;;4218135;28;20044;-85